createdAt,value
2022-09-13T00:02:25.233Z,99507.38
2022-09-13T00:04:52.514Z,99509.91
2022-09-13T00:07:20.725Z,99507.19
2022-09-13T00:09:48.854Z,99507.00
2022-09-13T00:12:16.352Z,99503.09
2022-09-13T00:14:44.424Z,99509.84
2022-09-13T00:17:11.634Z,99500.53
2022-09-13T00:19:38.843Z,99511.00
2022-09-13T00:22:06.595Z,99504.75
2022-09-13T00:24:34.434Z,99508.13
2022-09-13T00:27:01.612Z,99501.69
2022-09-13T00:29:28.885Z,99488.97
2022-09-13T00:31:56.290Z,99497.78
2022-09-13T00:34:23.571Z,99497.28
2022-09-13T00:36:50.816Z,99490.16
2022-09-13T00:39:18.094Z,99487.94
2022-09-13T00:41:45.690Z,99490.47
2022-09-13T00:44:50.702Z,99488.41
2022-09-13T00:47:23.572Z,99484.31
2022-09-13T00:49:55.715Z,99484.69
2022-09-13T00:52:24.379Z,99480.28
2022-09-13T00:54:58.124Z,99477.38
2022-09-13T00:57:26.135Z,99477.22
2022-09-13T01:00:11.080Z,99468.25
2022-09-13T01:02:55.927Z,99483.28
2022-09-13T01:05:37.744Z,99485.84
2022-09-13T01:08:12.719Z,99479.19
2022-09-13T01:10:41.699Z,99485.13
2022-09-13T01:13:15.069Z,99482.41
2022-09-13T01:15:43.261Z,99482.25
2022-09-13T01:18:11.187Z,99481.38
2022-09-13T01:21:06.666Z,99482.41
2022-09-13T01:23:53.389Z,99481.22
2022-09-13T01:26:31.970Z,99489.34
2022-09-13T01:29:33.603Z,99487.84
2022-09-13T01:32:24.706Z,99482.59
2022-09-13T01:35:23.913Z,99486.34
2022-09-13T01:38:28.988Z,99489.22
2022-09-13T01:41:12.626Z,99482.09
2022-09-13T01:43:45.831Z,99483.97
2022-09-13T01:46:19.551Z,99483.28
2022-09-13T01:48:54.826Z,99481.41
2022-09-13T01:51:35.278Z,99479.94
2022-09-13T01:54:15.529Z,99482.66
2022-09-13T01:57:16.569Z,99477.22
2022-09-13T01:59:53.784Z,99475.53
2022-09-13T02:02:35.260Z,99468.78
2022-09-13T02:05:13.154Z,99471.84
2022-09-13T02:07:42.852Z,99474.25
2022-09-13T02:10:15.213Z,99480.66
2022-09-13T02:12:43.699Z,99479.66
2022-09-13T02:15:20.490Z,99480.66
2022-09-13T02:17:52.645Z,99483.56
2022-09-13T02:20:40.933Z,99483.75
2022-09-13T02:23:13.485Z,99480.22
2022-09-13T02:25:41.468Z,99475.78
2022-09-13T02:28:19.285Z,99484.09
2022-09-13T02:30:51.882Z,99480.75
2022-09-13T02:33:24.486Z,99479.22
2022-09-13T02:35:53.800Z,99472.25
2022-09-13T02:38:25.774Z,99474.97
2022-09-13T02:41:01.241Z,99478.72
2022-09-13T02:43:35.977Z,99467.22
2022-09-13T02:46:14.669Z,99472.81
2022-09-13T02:49:15.953Z,99467.22
2022-09-13T02:51:46.287Z,99471.63
2022-09-13T02:54:25.320Z,99462.63
2022-09-13T02:56:55.304Z,99468.72
2022-09-13T02:59:24.196Z,99464.97
2022-09-13T03:02:04.127Z,99469.22
2022-09-13T03:04:33.214Z,99465.47
2022-09-13T03:07:03.339Z,99465.31
2022-09-13T03:09:31.826Z,99457.16
2022-09-13T03:12:12.746Z,99460.53
2022-09-13T03:14:51.500Z,99463.06
2022-09-13T03:17:30.838Z,99457.63
2022-09-13T03:20:33.623Z,99451.03
2022-09-13T03:23:09.802Z,99444.94
2022-09-13T03:25:56.866Z,99445.41
2022-09-13T03:28:34.236Z,99453.19
2022-09-13T03:31:18.064Z,99450.47
2022-09-13T03:33:55.615Z,99443.88
2022-09-13T03:36:46.451Z,99448.06
2022-09-13T03:39:25.818Z,99442.09
2022-09-13T03:41:57.274Z,99439.38
2022-09-13T03:44:25.662Z,99437.16
2022-09-13T03:46:57.338Z,99435.44
2022-09-13T03:49:26.574Z,99445.09
2022-09-13T03:51:54.008Z,99440.50
2022-09-13T03:54:27.307Z,99435.72
2022-09-13T03:57:14.298Z,99433.00
2022-09-13T03:59:46.504Z,99432.19
2022-09-13T04:02:15.286Z,99432.19
2022-09-13T04:04:44.809Z,99434.88
2022-09-13T04:07:14.885Z,99433.41
2022-09-13T04:09:42.258Z,99441.34
2022-09-13T04:12:14.205Z,99434.25
2022-09-13T04:14:43.281Z,99434.41
2022-09-13T04:17:10.957Z,99432.72
2022-09-13T04:19:38.560Z,99432.91
2022-09-13T04:22:06.414Z,99438.50
2022-09-13T04:24:33.838Z,99438.88
2022-09-13T04:27:01.606Z,99433.81
2022-09-13T04:29:29.009Z,99439.94
2022-09-13T04:31:56.491Z,99443.53
2022-09-13T04:34:24.171Z,99444.53
2022-09-13T04:36:52.908Z,99442.19
2022-09-13T04:39:21.063Z,99444.41
2022-09-13T04:41:49.038Z,99440.38
2022-09-13T04:44:20.611Z,99446.97
2022-09-13T04:46:49.068Z,99440.06
2022-09-13T04:49:17.971Z,99441.75
2022-09-13T04:51:45.412Z,99444.25
2022-09-13T04:54:15.554Z,99438.66
2022-09-13T04:56:44.129Z,99434.09
2022-09-13T04:59:11.993Z,99449.00
2022-09-13T05:01:40.587Z,99439.28
2022-09-13T05:04:08.475Z,99443.53
2022-09-13T05:06:36.104Z,99436.03
2022-09-13T05:09:04.073Z,99436.16
2022-09-13T05:11:31.680Z,99447.81
2022-09-13T05:14:01.352Z,99451.66
2022-09-13T05:16:31.284Z,99454.06
2022-09-13T05:19:00.789Z,99448.44
2022-09-13T05:21:29.260Z,99449.94
2022-09-13T05:23:57.263Z,99455.53
2022-09-13T05:26:26.520Z,99451.63
2022-09-13T05:28:53.754Z,99453.31
2022-09-13T05:31:30.599Z,99455.72
2022-09-13T05:34:00.478Z,99454.53
2022-09-13T05:36:28.266Z,99455.06
2022-09-13T05:39:18.850Z,99451.66
2022-09-13T05:41:45.174Z,99455.94
2022-09-13T05:44:13.739Z,99460.13
2022-09-13T05:46:42.387Z,99450.44
2022-09-13T05:49:11.590Z,99452.53
2022-09-13T05:51:39.362Z,99450.69
2022-09-13T05:54:06.805Z,99459.06
2022-09-13T05:56:37.916Z,99462.47
2022-09-13T05:59:06.401Z,99464.13
2022-09-13T06:01:35.687Z,99462.94
2022-09-13T06:04:03.051Z,99471.78
2022-09-13T06:06:33.078Z,99477.25
2022-09-13T06:09:02.965Z,99475.13
2022-09-13T06:11:34.635Z,99479.72
2022-09-13T06:14:02.525Z,99477.03
2022-09-13T06:16:30.915Z,99484.41
2022-09-13T06:19:01.188Z,99480.94
2022-09-13T06:21:29.427Z,99481.84
2022-09-13T06:23:59.414Z,99481.50
2022-09-13T06:26:28.410Z,99485.78
2022-09-13T06:28:58.131Z,99487.78
2022-09-13T06:31:28.273Z,99485.78
2022-09-13T06:34:02.545Z,99489.47
2022-09-13T06:36:30.395Z,99498.31
2022-09-13T06:39:00.723Z,99493.38
2022-09-13T06:41:28.420Z,99487.13
2022-09-13T06:43:58.733Z,99490.13
2022-09-13T06:46:40.901Z,99492.94
2022-09-13T06:49:11.405Z,99492.72
2022-09-13T06:51:38.994Z,99482.16
2022-09-13T06:54:06.391Z,99484.31
2022-09-13T06:56:35.958Z,99490.41
2022-09-13T06:59:06.373Z,99492.06
2022-09-13T07:01:44.871Z,99486.72
2022-09-13T07:04:25.418Z,99497.84
2022-09-13T07:06:58.272Z,99501.25
2022-09-13T07:09:26.607Z,99501.72
2022-09-13T07:11:56.038Z,99497.66
2022-09-13T07:14:27.868Z,99501.41
2022-09-13T07:17:01.167Z,99501.22
2022-09-13T07:19:31.741Z,99499.00
2022-09-13T07:22:02.337Z,99495.44
2022-09-13T07:24:31.695Z,99502.97
2022-09-13T07:26:59.645Z,99509.69
2022-09-13T07:29:26.846Z,99495.56
2022-09-13T07:31:55.234Z,99494.44
2022-09-13T07:34:24.527Z,99505.56
2022-09-13T07:36:56.509Z,99494.50
2022-09-13T07:39:24.429Z,99490.03
2022-09-13T07:41:53.813Z,99503.53
2022-09-13T07:44:21.248Z,99498.56
2022-09-13T07:46:54.352Z,99501.28
2022-09-13T07:49:22.062Z,99496.03
2022-09-13T07:51:55.493Z,99505.38
2022-09-13T07:54:28.349Z,99501.19
2022-09-13T07:56:55.854Z,99505.88
2022-09-13T07:59:30.071Z,99502.03
2022-09-13T08:01:58.298Z,99497.81
2022-09-13T08:04:30.613Z,99499.22
2022-09-13T08:07:01.620Z,99494.19
2022-09-13T08:09:33.027Z,99494.88
2022-09-13T08:12:00.632Z,99498.69
2022-09-13T08:14:27.883Z,99496.75
2022-09-13T08:16:57.029Z,99507.91
2022-09-13T08:19:24.438Z,99507.53
2022-09-13T08:21:51.601Z,99503.81
2022-09-13T08:24:21.436Z,99509.53
2022-09-13T08:26:49.451Z,99503.97
2022-09-13T08:29:20.030Z,99506.34
2022-09-13T08:31:52.382Z,99504.47
2022-09-13T08:34:21.373Z,99500.25
2022-09-13T08:36:48.599Z,99503.63
2022-09-13T08:39:16.354Z,99501.91
2022-09-13T08:41:45.414Z,99496.56
2022-09-13T08:44:38.719Z,99491.34
2022-09-13T08:47:34.581Z,99485.84
2022-09-13T08:50:14.050Z,99488.84
2022-09-13T08:53:06.147Z,99494.47
2022-09-13T08:55:51.861Z,99486.91
2022-09-13T08:58:36.047Z,99493.19
2022-09-13T09:01:08.139Z,99486.81
2022-09-13T09:03:46.826Z,99494.03
2022-09-13T09:06:16.213Z,99490.31
2022-09-13T09:08:53.144Z,99488.88
2022-09-13T09:11:28.832Z,99486.56
2022-09-13T09:14:17.657Z,99484.03
2022-09-13T09:16:52.713Z,99486.75
2022-09-13T09:19:40.507Z,99476.03
2022-09-13T09:22:17.574Z,99489.13
2022-09-13T09:24:54.926Z,99487.19
2022-09-13T09:27:23.206Z,99490.16
2022-09-13T09:29:58.224Z,99488.25
2022-09-13T09:32:43.801Z,99490.97
2022-09-13T09:35:27.467Z,99484.47
2022-09-13T09:38:31.384Z,99488.03
2022-09-13T09:41:05.866Z,99487.63
2022-09-13T09:43:45.996Z,99487.78
2022-09-13T09:46:15.608Z,99488.84
2022-09-13T09:48:49.700Z,99489.28
2022-09-13T09:51:28.300Z,99488.25
2022-09-13T09:54:01.979Z,99492.44
2022-09-13T09:56:32.573Z,99493.06
2022-09-13T09:59:00.096Z,99490.97
2022-09-13T10:01:35.025Z,99491.84
2022-09-13T10:04:12.307Z,99488.47
2022-09-13T10:06:43.596Z,99495.22
2022-09-13T10:09:20.357Z,99494.75
2022-09-13T10:11:52.746Z,99491.16
2022-09-13T10:14:38.311Z,99490.72
2022-09-13T10:17:20.409Z,99494.91
2022-09-13T10:19:59.363Z,99504.59
2022-09-13T10:22:28.036Z,99500.13
2022-09-13T10:25:07.872Z,99497.16
2022-09-13T10:27:38.553Z,99493.03
2022-09-13T10:30:26.375Z,99499.72
2022-09-13T10:32:57.728Z,99502.47
2022-09-13T10:35:27.767Z,99497.88
2022-09-13T10:37:55.731Z,99491.94
2022-09-13T10:40:28.979Z,99494.88
2022-09-13T10:42:58.381Z,99490.25
2022-09-13T10:45:28.371Z,99492.56
2022-09-13T10:48:02.835Z,99497.63
2022-09-13T10:50:35.900Z,99498.44
2022-09-13T10:53:08.281Z,99500.13
2022-09-13T10:55:37.649Z,99499.28
2022-09-13T10:58:05.005Z,99486.03
2022-09-13T11:00:42.271Z,99485.84
2022-09-13T11:03:40.177Z,99487.34
2022-09-13T11:06:21.051Z,99489.28
2022-09-13T11:09:26.876Z,99485.50
2022-09-13T11:12:02.987Z,99487.19
2022-09-13T11:14:47.946Z,99487.34
2022-09-13T11:17:33.337Z,99484.38
2022-09-13T11:20:20.864Z,99487.34
2022-09-13T11:23:22.623Z,99492.66
2022-09-13T11:26:05.336Z,99490.59
2022-09-13T11:28:54.885Z,99486.16
2022-09-13T11:31:44.420Z,99485.06
2022-09-13T11:34:37.654Z,99480.22
2022-09-13T11:37:26.760Z,99482.31
2022-09-13T11:40:28.654Z,99493.06
2022-09-13T11:43:16.397Z,99484.69
2022-09-13T11:45:49.868Z,99491.19
2022-09-13T11:48:40.255Z,99487.41
2022-09-13T11:51:29.041Z,99485.50
2022-09-13T11:54:24.047Z,99491.59
2022-09-13T11:56:56.220Z,99486.31
2022-09-13T11:59:40.741Z,99490.94
2022-09-13T12:02:31.349Z,99484.81
2022-09-13T12:05:25.892Z,99492.22
2022-09-13T12:08:25.595Z,99491.38
2022-09-13T12:11:16.138Z,99483.19
2022-09-13T12:13:49.495Z,99484.03
2022-09-13T12:16:36.374Z,99484.25
2022-09-13T12:19:21.359Z,99477.97
2022-09-13T12:21:49.798Z,99472.25
2022-09-13T12:24:31.358Z,99480.44
2022-09-13T12:27:20.964Z,99478.38
2022-09-13T12:30:20.958Z,99473.31
2022-09-13T12:32:49.193Z,99477.69
2022-09-13T12:35:30.581Z,99487.78
2022-09-13T12:38:12.586Z,99482.50
2022-09-13T12:40:55.061Z,99489.06
2022-09-13T12:43:22.270Z,99494.75
2022-09-13T12:46:01.414Z,99490.72
2022-09-13T12:48:50.740Z,99490.66
2022-09-13T12:51:41.000Z,99497.19
2022-09-13T12:54:32.783Z,99496.78
2022-09-13T12:57:23.192Z,99499.09
2022-09-13T13:00:15.099Z,99496.19
2022-09-13T13:02:54.751Z,99495.97
2022-09-13T13:05:31.298Z,99503.94
2022-09-13T13:08:06.508Z,99506.72
2022-09-13T13:10:37.306Z,99504.00
2022-09-13T13:13:34.806Z,99504.66
2022-09-13T13:16:21.523Z,99508.03
2022-09-13T13:18:52.265Z,99506.91
2022-09-13T13:21:49.011Z,99509.88
2022-09-13T13:24:16.194Z,99505.03
2022-09-13T13:26:45.769Z,99501.25
2022-09-13T13:29:19.738Z,99505.84
2022-09-13T13:32:07.816Z,99501.59
2022-09-13T13:34:41.648Z,99499.03
2022-09-13T13:37:08.849Z,99496.28
2022-09-13T13:39:40.540Z,99508.91
2022-09-13T13:42:25.437Z,99503.41
2022-09-13T13:44:52.896Z,99502.28
2022-09-13T13:47:20.467Z,99501.88
2022-09-13T13:49:53.039Z,99507.13
2022-09-13T13:52:23.403Z,99499.78
2022-09-13T13:55:21.505Z,99500.38
2022-09-13T13:58:03.928Z,99499.75
2022-09-13T14:00:34.690Z,99506.84
2022-09-13T14:03:02.107Z,99508.97
2022-09-13T14:06:06.316Z,99510.00
2022-09-13T14:08:55.021Z,99506.00
2022-09-13T14:11:44.387Z,99512.56
2022-09-13T14:14:30.258Z,99509.16
2022-09-13T14:17:20.907Z,99501.50
2022-09-13T14:19:50.471Z,99508.19
2022-09-13T14:22:25.354Z,99502.72
2022-09-13T14:24:53.953Z,99501.66
2022-09-13T14:27:22.901Z,99507.88
2022-09-13T14:30:20.826Z,99505.75
2022-09-13T14:32:54.536Z,99510.75
2022-09-13T14:35:34.328Z,99506.72
2022-09-13T14:38:20.862Z,99515.06
2022-09-13T14:40:53.156Z,99514.69
2022-09-13T14:43:23.281Z,99523.97
2022-09-13T14:46:05.141Z,99519.47
2022-09-13T14:49:01.590Z,99522.28
2022-09-13T14:51:40.354Z,99537.00
2022-09-13T14:54:16.022Z,99529.41
2022-09-13T14:56:50.338Z,99534.34
2022-09-13T14:59:28.641Z,99538.34
2022-09-13T15:02:02.653Z,99551.69
2022-09-13T15:04:31.182Z,99543.19
2022-09-13T15:07:09.826Z,99547.28
2022-09-13T15:09:38.413Z,99539.97
2022-09-13T15:12:27.404Z,99539.28
2022-09-13T15:15:24.489Z,99548.22
2022-09-13T15:17:52.693Z,99556.47
2022-09-13T15:20:23.788Z,99552.78
2022-09-13T15:22:53.599Z,99550.72
2022-09-13T15:25:24.493Z,99556.03
2022-09-13T15:27:52.338Z,99549.75
2022-09-13T15:30:41.342Z,99550.97
2022-09-13T15:33:11.845Z,99554.94
2022-09-13T15:35:41.763Z,99555.31
2022-09-13T15:38:28.843Z,99563.38
2022-09-13T15:41:01.983Z,99564.78
2022-09-13T15:43:31.054Z,99565.31
2022-09-13T15:45:59.342Z,99569.63
2022-09-13T15:48:35.083Z,99560.16
2022-09-13T15:51:07.598Z,99567.00
2022-09-13T15:53:38.084Z,99567.75
2022-09-13T15:56:07.315Z,99572.03
2022-09-13T15:58:36.581Z,99577.63
2022-09-13T16:01:04.203Z,99581.44
2022-09-13T16:03:32.104Z,99586.75
2022-09-13T16:05:59.337Z,99589.56
2022-09-13T16:08:27.771Z,99579.38
2022-09-13T16:10:55.154Z,99586.72
2022-09-13T16:13:23.402Z,99586.09
2022-09-13T16:15:53.629Z,99587.47
2022-09-13T16:18:24.815Z,99591.56
2022-09-13T16:20:52.195Z,99592.47
2022-09-13T16:23:19.480Z,99591.13
2022-09-13T16:25:47.888Z,99592.34
2022-09-13T16:28:18.037Z,99593.88
2022-09-13T16:30:45.540Z,99615.81
2022-09-13T16:33:13.226Z,99619.69
2022-09-13T16:35:41.436Z,99621.91
2022-09-13T16:38:10.665Z,99619.59
2022-09-13T16:40:43.691Z,99617.03
2022-09-13T16:43:11.304Z,99622.09
2022-09-13T16:45:40.892Z,99628.25
2022-09-13T16:48:08.797Z,99623.28
2022-09-13T16:50:40.223Z,99624.28
2022-09-13T16:53:07.821Z,99623.63
2022-09-13T16:55:35.735Z,99630.09
2022-09-13T16:58:04.624Z,99630.72
2022-09-13T17:00:32.206Z,99632.19
2022-09-13T17:02:59.555Z,99638.13
2022-09-13T17:05:27.065Z,99641.22
2022-09-13T17:07:54.382Z,99644.97
2022-09-13T17:10:25.921Z,99643.16
2022-09-13T17:12:53.791Z,99640.13
2022-09-13T17:15:21.350Z,99636.59
2022-09-13T17:17:48.901Z,99647.34
2022-09-13T17:20:17.618Z,99646.84
2022-09-13T17:22:44.871Z,99651.25
2022-09-13T17:25:12.353Z,99642.63
2022-09-13T17:27:39.779Z,99650.44
2022-09-13T17:30:08.244Z,99657.41
2022-09-13T17:32:41.810Z,99657.22
2022-09-13T17:35:11.238Z,99654.38
2022-09-13T17:37:38.762Z,99652.31
2022-09-13T17:40:06.600Z,99659.09
2022-09-13T17:42:34.646Z,99667.09
2022-09-13T17:45:02.121Z,99659.81
2022-09-13T17:47:29.604Z,99666.06
2022-09-13T17:49:56.906Z,99666.75
2022-09-13T17:52:24.845Z,99674.50
2022-09-13T17:54:52.218Z,99670.78
2022-09-13T17:57:19.883Z,99676.34
2022-09-13T17:59:48.169Z,99677.22
2022-09-13T18:02:15.878Z,99678.38
2022-09-13T18:04:43.443Z,99682.94
2022-09-13T18:07:10.954Z,99681.41
2022-09-13T18:09:40.714Z,99676.84
2022-09-13T18:12:08.007Z,99686.81
2022-09-13T18:14:35.891Z,99685.97
2022-09-13T18:17:10.725Z,99685.66
2022-09-13T18:19:46.329Z,99680.25
2022-09-13T18:22:16.032Z,99689.03
2022-09-13T18:24:46.828Z,99684.47
2022-09-13T18:27:14.277Z,99675.16
2022-09-13T18:29:42.698Z,99686.00
2022-09-13T18:32:10.211Z,99681.41
2022-09-13T18:34:37.779Z,99678.06
2022-09-13T18:37:05.767Z,99689.88
2022-09-13T18:39:35.751Z,99679.03
2022-09-13T18:42:04.296Z,99680.06
2022-09-13T18:44:33.767Z,99675.84
2022-09-13T18:47:03.960Z,99683.09
2022-09-13T18:49:31.774Z,99684.81
2022-09-13T18:51:59.065Z,99687.34
2022-09-13T18:54:26.365Z,99684.31
2022-09-13T18:56:54.410Z,99687.88
2022-09-13T18:59:21.973Z,99676.19
2022-09-13T19:01:49.950Z,99673.63
2022-09-13T19:04:19.711Z,99664.50
2022-09-13T19:06:52.402Z,99668.06
2022-09-13T19:09:23.546Z,99662.63
2022-09-13T19:11:54.781Z,99666.38
2022-09-13T19:14:27.266Z,99662.13
2022-09-13T19:16:57.809Z,99658.38
2022-09-13T19:19:25.255Z,99655.16
2022-09-13T19:21:56.872Z,99655.66
2022-09-13T19:24:24.864Z,99657.53
2022-09-13T19:26:52.874Z,99665.97
2022-09-13T19:29:22.178Z,99659.72
2022-09-13T19:31:52.629Z,99658.22
2022-09-13T19:34:40.314Z,99660.75
2022-09-13T19:37:10.107Z,99660.56
2022-09-13T19:39:37.888Z,99654.16
2022-09-13T19:42:05.468Z,99667.53
2022-09-13T19:44:47.709Z,99664.50
2022-09-13T19:48:02.296Z,99663.47
2022-09-13T19:50:05.379Z,99669.56
2022-09-13T19:52:32.908Z,99671.09
2022-09-13T19:55:00.455Z,99667.72
2022-09-13T19:57:30.772Z,99668.72
2022-09-13T19:59:58.450Z,99679.72
2022-09-13T20:02:25.680Z,99676.69
2022-09-13T20:04:53.039Z,99672.13
2022-09-13T20:07:20.581Z,99684.63
2022-09-13T20:09:48.341Z,99685.81
2022-09-13T20:12:15.729Z,99687.53
2022-09-13T20:14:48.021Z,99687.88
2022-09-13T20:17:15.380Z,99697.34
2022-09-13T20:19:49.966Z,99697.84
2022-09-13T20:22:46.002Z,99701.38
2022-09-13T20:25:13.728Z,99707.28
2022-09-13T20:27:41.018Z,99706.09
2022-09-13T20:30:08.658Z,99711.47
2022-09-13T20:32:36.494Z,99711.97
2022-09-13T20:35:04.253Z,99711.09
2022-09-13T20:37:31.646Z,99707.50
2022-09-13T20:40:03.112Z,99712.94
2022-09-13T20:42:30.656Z,99721.22
2022-09-13T20:44:58.020Z,99716.97
2022-09-13T20:47:25.680Z,99721.88
2022-09-13T20:49:54.210Z,99730.69
2022-09-13T20:52:22.616Z,99734.41
2022-09-13T20:54:50.851Z,99734.72
2022-09-13T20:57:18.273Z,99735.88
2022-09-13T20:59:46.408Z,99734.69
2022-09-13T21:02:14.653Z,99738.41
2022-09-13T21:04:42.455Z,99728.38
2022-09-13T21:07:31.949Z,99735.97
2022-09-13T21:10:01.087Z,99738.13
2022-09-13T21:12:28.598Z,99740.16
2022-09-13T21:14:56.157Z,99746.06
2022-09-13T21:17:27.721Z,99747.53
2022-09-13T21:19:55.473Z,99745.91
2022-09-13T21:22:24.982Z,99736.72
2022-09-13T21:24:52.276Z,99749.88
2022-09-13T21:27:20.092Z,99749.66
2022-09-13T21:29:51.838Z,99753.84
2022-09-13T21:32:22.751Z,99735.69
2022-09-13T21:34:50.300Z,99745.84
2022-09-13T21:37:17.848Z,99753.41
2022-09-13T21:39:45.278Z,99743.59
2022-09-13T21:42:12.503Z,99744.75
2022-09-13T21:44:39.797Z,99751.16
2022-09-13T21:47:07.147Z,99749.94
2022-09-13T21:49:34.394Z,99749.63
2022-09-13T21:52:02.889Z,99750.16
2022-09-13T21:54:30.334Z,99754.88
2022-09-13T21:56:58.197Z,99750.16
2022-09-13T21:59:25.896Z,99754.19
2022-09-13T22:01:54.459Z,99746.25
2022-09-13T22:04:25.437Z,99745.16
2022-09-13T22:06:53.928Z,99740.94
2022-09-13T22:09:27.062Z,99749.16
2022-09-13T22:11:55.891Z,99747.66
2022-09-13T22:14:23.401Z,99747.94
2022-09-13T22:16:52.850Z,99742.38
2022-09-13T22:19:23.772Z,99750.47
2022-09-13T22:21:55.769Z,99749.47
2022-09-13T22:24:25.483Z,99749.47
2022-09-13T22:26:54.174Z,99764.38
2022-09-13T22:29:22.707Z,99746.47
2022-09-13T22:31:51.325Z,99759.69
2022-09-13T22:34:22.299Z,99766.56
2022-09-13T22:36:49.591Z,99755.97
2022-09-13T22:39:17.646Z,99762.06
2022-09-13T22:41:45.638Z,99766.16
2022-09-13T22:44:13.579Z,99765.16
2022-09-13T22:46:46.644Z,99769.53
2022-09-13T22:49:19.874Z,99775.97
2022-09-13T22:51:50.721Z,99783.78
2022-09-13T22:54:19.604Z,99782.38
2022-09-13T22:56:47.447Z,99785.75
2022-09-13T22:59:20.316Z,99785.75
2022-09-13T23:01:48.080Z,99786.78
2022-09-13T23:04:15.745Z,99784.44
2022-09-13T23:06:44.716Z,99788.53
2022-09-13T23:09:15.079Z,99791.06
2022-09-13T23:11:42.702Z,99792.94
2022-09-13T23:14:12.923Z,99787.41
2022-09-13T23:16:45.481Z,99791.94
2022-09-13T23:19:16.542Z,99787.22
2022-09-13T23:21:44.206Z,99789.09
2022-09-13T23:24:15.512Z,99794.31
2022-09-13T23:26:43.816Z,99783.69
2022-09-13T23:29:14.155Z,99788.06
2022-09-13T23:31:41.573Z,99792.25
2022-09-13T23:34:10.929Z,99793.47
2022-09-13T23:36:41.324Z,99805.31
2022-09-13T23:39:13.263Z,99805.31
2022-09-13T23:41:41.027Z,99797.31
2022-09-13T23:44:11.651Z,99802.72
2022-09-13T23:46:39.066Z,99808.13
2022-09-13T23:49:06.472Z,99801.03
2022-09-13T23:51:33.776Z,99801.22
2022-09-13T23:54:01.931Z,99799.53
2022-09-13T23:56:31.521Z,99802.06
2022-09-13T23:59:00.338Z,99811.19
